Time;durP1;ratioP1;P1;durP2;ratioP2;P2;SDS_P1;SDS_P2;PMS_P1;PMS_P2;Temp;Humidity;BMP_temperature;BMP_pressure;BME280_temperature;BME280_humidity;BME280_pressure;Samples;Min_cycle;Max_cycle;Signal;HPM_P1;HPM_P2
2022/05/29 00:01:24;;;;;;;7.13;2.20;;;;;;;10.06;100.00;98983.25;5070324;28;20196;-79
2022/05/29 00:03:53;;;;;;;7.97;2.63;;;;;;;10.03;100.00;98981.63;5069349;28;20204;-78
2022/05/29 00:06:21;;;;;;;6.43;2.20;;;;;;;10.08;100.00;98983.16;5068783;28;20250;-79
2022/05/29 00:08:50;;;;;;;6.23;2.20;;;;;;;10.07;100.00;98979.66;5069293;28;20220;-78
2022/05/29 00:11:18;;;;;;;5.90;2.00;;;;;;;10.09;100.00;98984.84;5072279;28;20199;-78
2022/05/29 00:13:49;;;;;;;4.40;2.07;;;;;;;9.89;100.00;98973.75;5064411;28;20208;-79
2022/05/29 00:16:17;;;;;;;7.77;2.20;;;;;;;9.85;100.00;98980.19;5075065;28;20207;-79
2022/05/29 00:18:45;;;;;;;5.70;2.70;;;;;;;9.79;100.00;98975.28;5077381;28;20200;-79
2022/05/29 00:21:13;;;;;;;8.03;2.47;;;;;;;9.58;100.00;98972.22;5075999;28;20188;-79
2022/05/29 00:23:44;;;;;;;8.60;2.30;;;;;;;9.67;100.00;98969.00;5068153;28;20643;-79
2022/05/29 00:26:13;;;;;;;8.27;2.60;;;;;;;9.45;100.00;98961.53;5078201;28;20195;-79
2022/05/29 00:28:42;;;;;;;7.80;2.83;;;;;;;9.28;100.00;98967.06;5073600;28;20212;-79
2022/05/29 00:31:13;;;;;;;10.07;2.33;;;;;;;9.16;100.00;98963.34;5077232;28;20192;-79
2022/05/29 00:33:42;;;;;;;6.57;2.60;;;;;;;9.08;100.00;98970.91;5100066;27;20202;-78
2022/05/29 00:36:15;;;;;;;6.10;2.60;;;;;;;9.13;100.00;98966.19;5095924;28;20290;-78
2022/05/29 00:38:45;;;;;;;8.93;2.37;;;;;;;8.94;100.00;98960.31;5093958;28;20199;-80
2022/05/29 00:41:21;;;;;;;9.07;2.57;;;;;;;9.01;100.00;98963.44;5095965;28;20332;-78
2022/05/29 00:44:08;;;;;;;4.40;2.20;;;;;;;9.07;100.00;98949.84;5087242;28;20194;-79
2022/05/29 00:46:38;;;;;;;5.33;2.13;;;;;;;8.83;100.00;98952.19;5092127;28;20222;-79
2022/05/29 00:49:08;;;;;;;5.97;2.17;;;;;;;8.70;100.00;98956.53;5091157;28;20242;-79
2022/05/29 00:51:39;;;;;;;8.77;2.40;;;;;;;8.81;100.00;98951.44;5092697;28;20206;-79
2022/05/29 00:54:08;;;;;;;6.93;2.40;;;;;;;8.84;100.00;98949.47;5095657;28;20283;-78
2022/05/29 00:56:39;;;;;;;7.60;2.40;;;;;;;8.79;100.00;98940.13;5095468;28;20274;-79
2022/05/29 00:59:12;;;;;;;4.13;1.83;;;;;;;8.79;100.00;98946.28;5093018;28;20291;-78
2022/05/29 01:01:42;;;;;;;5.97;2.30;;;;;;;8.81;100.00;98948.81;5086622;28;20199;-79
2022/05/29 01:04:11;;;;;;;8.70;2.40;;;;;;;8.80;100.00;98947.13;5097619;28;20198;-79
2022/05/29 01:06:40;;;;;;;8.43;2.30;;;;;;;8.78;100.00;98944.56;5096575;28;20206;-79
2022/05/29 01:09:11;;;;;;;9.03;2.47;;;;;;;8.93;100.00;98934.00;5094419;28;20298;-79
2022/05/29 01:11:55;;;;;;;6.30;2.47;;;;;;;8.83;100.00;98939.00;5095127;28;20203;-79
2022/05/29 01:14:30;;;;;;;7.87;2.43;;;;;;;8.89;100.00;98939.50;5089579;28;20274;-79
2022/05/29 01:17:08;;;;;;;10.03;2.20;;;;;;;8.72;100.00;98939.66;5095211;28;20202;-78
2022/05/29 01:20:10;;;;;;;4.90;2.03;;;;;;;8.84;100.00;98941.53;5090984;28;20196;-78
2022/05/29 01:23:16;;;;;;;8.00;2.40;;;;;;;8.77;100.00;98940.19;5069735;28;20234;-78
2022/05/29 01:26:15;;;;;;;8.00;2.67;;;;;;;8.78;100.00;98935.78;5094566;28;20214;-78
2022/05/29 01:29:01;;;;;;;7.40;2.63;;;;;;;8.82;100.00;98930.22;5094361;28;20302;-79
2022/05/29 01:31:43;;;;;;;4.77;2.20;;;;;;;8.60;100.00;98929.81;5094915;28;20195;-79
2022/05/29 01:34:35;;;;;;;10.57;2.80;;;;;;;8.55;100.00;98929.25;5090552;28;20211;-78
2022/05/29 01:37:15;;;;;;;5.83;2.53;;;;;;;8.52;100.00;98927.63;5094666;28;20335;-78
2022/05/29 01:40:04;;;;;;;6.87;2.60;;;;;;;8.63;100.00;98923.50;5092342;28;20210;-79
2022/05/29 01:42:39;;;;;;;5.47;2.60;;;;;;;8.60;100.00;98914.84;5089409;28;20208;-79
2022/05/29 01:45:22;;;;;;;8.13;2.63;;;;;;;8.52;100.00;98919.72;5094766;28;20203;-79
2022/05/29 01:47:54;;;;;;;9.63;2.47;;;;;;;8.51;100.00;98919.81;5093216;28;20611;-79
2022/05/29 01:50:34;;;;;;;4.63;2.40;;;;;;;8.25;100.00;98914.25;5094535;28;20228;-78
2022/05/29 01:53:11;;;;;;;7.37;2.20;;;;;;;8.23;100.00;98912.63;5095486;28;20198;-79
2022/05/29 01:55:44;;;;;;;6.07;2.30;;;;;;;8.22;100.00;98911.78;5093707;28;20598;-79
2022/05/29 01:58:17;;;;;;;7.00;2.90;;;;;;;8.28;100.00;98913.19;5091420;28;20195;-78
2022/05/29 02:00:50;;;;;;;4.90;2.10;;;;;;;8.34;100.00;98915.50;5092498;28;20263;-78
2022/05/29 02:03:23;;;;;;;7.23;2.40;;;;;;;8.37;100.00;98919.75;5095131;28;20199;-79
2022/05/29 02:05:56;;;;;;;6.30;2.47;;;;;;;8.25;100.00;98916.88;5091220;28;20191;-79
2022/05/29 02:08:28;;;;;;;7.40;2.67;;;;;;;8.18;100.00;98912.88;5095268;28;20191;-78
2022/05/29 02:11:03;;;;;;;7.97;2.57;;;;;;;8.18;100.00;98917.31;5093926;28;20206;-79
2022/05/29 02:13:34;;;;;;;9.43;2.53;;;;;;;8.02;100.00;98912.09;5091000;28;20204;-79
2022/05/29 02:16:07;;;;;;;7.70;2.23;;;;;;;8.07;100.00;98911.81;5095333;28;20267;-78
2022/05/29 02:18:43;;;;;;;5.73;2.10;;;;;;;8.04;100.00;98911.06;5088881;28;20246;-78
2022/05/29 02:21:17;;;;;;;6.77;2.43;;;;;;;8.13;100.00;98914.97;5092981;28;20271;-78
2022/05/29 02:23:50;;;;;;;5.67;2.50;;;;;;;8.12;100.00;98915.06;5090925;28;20191;-78
2022/05/29 02:26:24;;;;;;;9.23;2.87;;;;;;;8.13;100.00;98911.47;5093917;28;20283;-78
2022/05/29 02:28:59;;;;;;;7.67;2.87;;;;;;;8.07;100.00;98912.66;5090570;28;20298;-79
2022/05/29 02:31:40;;;;;;;4.93;2.30;;;;;;;8.12;100.00;98905.34;5087033;28;20208;-79
2022/05/29 02:34:19;;;;;;;5.10;2.20;;;;;;;8.04;100.00;98910.22;5093598;28;20661;-79
2022/05/29 02:36:52;;;;;;;5.90;2.20;;;;;;;8.19;100.00;98901.41;5095226;28;20191;-78
2022/05/29 02:39:39;;;;;;;5.87;2.40;;;;;;;8.00;100.00;98908.69;5085590;28;20218;-79
2022/05/29 02:42:20;;;;;;;5.57;2.80;;;;;;;8.07;100.00;98904.75;5094778;28;20187;-79
2022/05/29 02:44:56;;;;;;;10.73;3.07;;;;;;;8.08;100.00;98905.59;5090433;28;20187;-79
2022/05/29 02:47:32;;;;;;;7.63;2.47;;;;;;;8.17;100.00;98892.72;5093847;28;20260;-79
2022/05/29 02:50:18;;;;;;;7.87;2.23;;;;;;;8.04;100.00;98894.38;5093031;28;20401;-79
2022/05/29 02:52:51;;;;;;;10.40;2.33;;;;;;;7.98;100.00;98894.72;5097896;28;20192;-80
2022/05/29 02:55:19;;;;;;;6.77;2.40;;;;;;;7.91;100.00;98898.66;5086463;28;20219;-79
2022/05/29 02:57:50;;;;;;;6.40;2.30;;;;;;;7.76;100.00;98897.75;5092685;28;20194;-79
2022/05/29 03:00:19;;;;;;;6.17;2.43;;;;;;;7.88;100.00;98886.50;5095062;28;20206;-79
2022/05/29 03:03:03;;;;;;;6.50;2.37;;;;;;;7.96;100.00;98893.97;5093859;28;20246;-79
2022/05/29 03:05:37;;;;;;;4.07;2.00;;;;;;;8.07;100.00;98885.44;5087967;28;20202;-79
2022/05/29 03:08:26;;;;;;;5.53;2.10;;;;;;;8.00;100.00;98888.44;5106613;28;20197;-79
2022/05/29 03:11:01;;;;;;;4.73;2.07;;;;;;;8.02;100.00;98902.41;5113359;28;20214;-78
2022/05/29 03:13:48;;;;;;;5.77;2.60;;;;;;;8.00;100.00;98892.84;5113287;28;20265;-79
2022/05/29 03:16:27;;;;;;;5.70;2.30;;;;;;;7.94;100.00;98887.94;5111012;28;20193;-79
2022/05/29 03:19:06;;;;;;;3.47;1.77;;;;;;;7.92;100.00;98888.03;5112455;28;20198;-79
2022/05/29 03:21:44;;;;;;;5.90;2.13;;;;;;;7.74;100.00;98889.09;5113279;28;20187;-79
2022/05/29 03:24:19;;;;;;;5.07;2.20;;;;;;;7.83;100.00;98885.09;5111214;28;20236;-79
2022/05/29 03:26:53;;;;;;;7.27;2.60;;;;;;;7.87;100.00;98894.50;5110106;28;20273;-79
2022/05/29 03:29:29;;;;;;;6.87;2.17;;;;;;;7.80;100.00;98899.28;5113205;28;20227;-79
2022/05/29 03:31:58;;;;;;;8.57;2.70;;;;;;;7.99;100.00;98894.63;5111807;28;20201;-79
2022/05/29 03:34:28;;;;;;;7.53;2.43;;;;;;;7.95;100.00;98893.13;5108836;28;20214;-79
2022/05/29 03:36:56;;;;;;;5.47;2.40;;;;;;;7.87;100.00;98891.88;5108655;28;20191;-79
2022/05/29 03:39:24;;;;;;;5.70;2.30;;;;;;;8.03;100.00;98893.53;5110232;28;20202;-79
2022/05/29 03:41:54;;;;;;;8.17;2.07;;;;;;;8.04;100.00;98895.25;5110343;28;20282;-79
2022/05/29 03:44:25;;;;;;;5.97;2.23;;;;;;;8.09;100.00;98894.09;5107081;28;20191;-79
2022/05/29 03:46:53;;;;;;;6.50;2.40;;;;;;;8.06;100.00;98891.66;5111927;28;20197;-79
2022/05/29 03:49:23;;;;;;;7.20;2.53;;;;;;;8.08;100.00;98890.63;5110064;28;20199;-78
2022/05/29 03:51:53;;;;;;;6.90;2.20;;;;;;;7.97;100.00;98885.97;5115670;28;20198;-79
2022/05/29 03:54:22;;;;;;;8.80;2.03;;;;;;;8.08;100.00;98882.72;5111576;28;20191;-79
2022/05/29 03:56:50;;;;;;;5.63;2.13;;;;;;;8.13;100.00;98885.09;5111225;28;20363;-79
2022/05/29 03:59:18;;;;;;;7.37;2.23;;;;;;;8.19;100.00;98882.06;5110950;28;20195;-78
2022/05/29 04:01:46;;;;;;;7.30;2.47;;;;;;;8.23;100.00;98876.56;5115239;28;20195;-78
2022/05/29 04:04:14;;;;;;;6.30;2.47;;;;;;;8.17;100.00;98878.69;5114123;28;20226;-79
2022/05/29 04:06:42;;;;;;;5.60;2.07;;;;;;;8.12;100.00;98878.97;5116954;28;20317;-78
2022/05/29 04:12:05;;;;;;;9.37;2.30;;;;;;;8.24;100.00;98874.75;5116911;27;20669;-78
2022/05/29 04:14:35;;;;;;;6.70;2.20;;;;;;;8.22;100.00;98866.94;5116781;28;20201;-78
2022/05/29 04:17:04;;;;;;;3.90;1.70;;;;;;;8.35;100.00;98863.59;5115435;28;20266;-78
2022/05/29 04:19:33;;;;;;;6.03;2.27;;;;;;;8.24;100.00;98872.97;5117807;27;20221;-79
2022/05/29 04:22:01;;;;;;;7.27;2.60;;;;;;;8.21;100.00;98865.25;5116543;28;20191;-79
2022/05/29 04:24:31;;;;;;;6.67;2.50;;;;;;;8.22;100.00;98872.22;5116425;28;20198;-79
2022/05/29 04:26:59;;;;;;;7.43;2.00;;;;;;;8.01;100.00;98862.94;5118160;27;20191;-78
2022/05/29 04:29:28;;;;;;;5.53;2.17;;;;;;;8.00;100.00;98863.84;5116347;28;20226;-79
2022/05/29 04:34:41;;;;;;;7.67;2.80;;;;;;;7.86;100.00;98864.66;5116380;28;20191;-79
2022/05/29 04:37:09;;;;;;;6.10;2.70;;;;;;;7.88;100.00;98852.22;5111629;28;20202;-78
2022/05/29 04:39:39;;;;;;;5.47;2.60;;;;;;;7.86;100.00;98866.44;5116372;28;20201;-79
2022/05/29 04:42:08;;;;;;;7.27;2.50;;;;;;;7.99;100.00;98865.63;5113190;28;20202;-79
2022/05/29 04:44:36;;;;;;;6.53;2.83;;;;;;;8.09;100.00;98867.72;5116317;28;20270;-79
2022/05/29 04:47:04;;;;;;;8.77;2.77;;;;;;;8.03;100.00;98869.81;5114739;28;20187;-79
2022/05/29 04:49:33;;;;;;;8.20;2.67;;;;;;;8.04;100.00;98873.28;5114634;28;20194;-79
2022/05/29 04:52:01;;;;;;;6.33;2.27;;;;;;;7.95;100.00;98864.13;5112613;28;20234;-79
2022/05/29 04:54:29;;;;;;;7.30;2.60;;;;;;;7.98;100.00;98866.56;5111843;28;20191;-79
2022/05/29 04:56:59;;;;;;;6.50;2.20;;;;;;;8.20;100.00;98876.75;5118277;27;20202;-79
2022/05/29 04:59:28;;;;;;;5.80;2.63;;;;;;;7.98;100.00;98873.63;5114508;28;20206;-78
2022/05/29 05:01:58;;;;;;;8.13;2.53;;;;;;;8.23;100.00;98871.28;5114721;28;20665;-78
2022/05/29 05:04:27;;;;;;;5.83;2.50;;;;;;;8.24;100.00;98877.41;5111098;28;20195;-79
2022/05/29 05:06:55;;;;;;;6.00;2.50;;;;;;;8.25;100.00;98877.31;5111712;28;20621;-78
2022/05/29 05:09:24;;;;;;;5.60;2.50;;;;;;;8.40;100.00;98870.31;5113405;27;20290;-79
2022/05/29 05:11:52;;;;;;;7.53;2.37;;;;;;;8.52;100.00;98868.72;5118733;27;20218;-78
2022/05/29 05:14:23;;;;;;;6.30;2.40;;;;;;;8.53;100.00;98865.97;5112904;28;20202;-79
2022/05/29 05:16:53;;;;;;;5.53;2.10;;;;;;;8.53;100.00;98868.63;5051549;28;20195;-79
2022/05/29 05:19:22;;;;;;;7.13;2.47;;;;;;;8.60;100.00;98869.97;5045902;28;20212;-79
2022/05/29 05:21:52;;;;;;;5.53;2.03;;;;;;;8.63;100.00;98862.78;5050956;28;20223;-79
2022/05/29 05:24:21;;;;;;;10.00;2.67;;;;;;;8.66;100.00;98866.09;5049230;28;20208;-79
2022/05/29 05:26:50;;;;;;;9.43;2.60;;;;;;;8.89;100.00;98868.19;5051314;28;20205;-79
2022/05/29 05:29:18;;;;;;;4.57;2.10;;;;;;;8.80;100.00;98863.47;5045765;28;20236;-79
2022/05/29 05:31:47;;;;;;;6.10;2.40;;;;;;;9.00;100.00;98862.22;5048420;28;20570;-78
2022/05/29 05:34:16;;;;;;;10.37;2.63;;;;;;;9.19;100.00;98867.22;5059962;28;20191;-79
2022/05/29 05:36:44;;;;;;;8.77;2.87;;;;;;;9.19;100.00;98864.56;5109738;28;20233;-79
2022/05/29 05:39:12;;;;;;;5.37;2.40;;;;;;;9.21;100.00;98860.03;5111887;28;20194;-79
2022/05/29 05:41:46;;;;;;;6.47;2.47;;;;;;;9.34;100.00;98860.09;5116582;27;20723;-79
2022/05/29 05:44:15;;;;;;;4.63;1.80;;;;;;;9.06;100.00;98853.91;5110391;28;20222;-78
2022/05/29 05:46:49;;;;;;;7.53;2.10;;;;;;;9.11;100.00;98856.28;5113856;28;20210;-79
2022/05/29 05:49:17;;;;;;;5.93;2.07;;;;;;;8.92;100.00;98864.50;5108650;28;20657;-79
2022/05/29 05:51:46;;;;;;;8.00;2.13;;;;;;;9.22;100.00;98855.59;5110957;28;20218;-79
2022/05/29 05:54:15;;;;;;;5.03;2.00;;;;;;;9.13;100.00;98857.84;5117254;27;20195;-79
2022/05/29 05:56:44;;;;;;;8.17;2.10;;;;;;;9.00;100.00;98848.16;5111690;28;20645;-78
2022/05/29 05:59:12;;;;;;;5.73;1.97;;;;;;;9.11;100.00;98846.53;5112493;28;20199;-78
2022/05/29 06:01:41;;;;;;;6.43;2.53;;;;;;;9.10;100.00;98844.00;5108007;28;20195;-78
2022/05/29 06:04:11;;;;;;;5.90;2.13;;;;;;;9.29;100.00;98846.34;5110734;28;20191;-78
2022/05/29 06:06:39;;;;;;;4.57;2.27;;;;;;;9.33;100.00;98840.72;5115710;27;20270;-78
2022/05/29 06:09:07;;;;;;;8.93;2.10;;;;;;;9.40;100.00;98847.34;5108414;28;20653;-78
2022/05/29 06:11:39;;;;;;;6.57;2.23;;;;;;;9.67;100.00;98847.34;5127283;28;20205;-79
2022/05/29 06:14:08;;;;;;;5.80;2.30;;;;;;;9.83;100.00;98841.88;5113057;28;20197;-79
2022/05/29 06:16:37;;;;;;;8.13;2.00;;;;;;;9.82;100.00;98842.00;5113255;27;20198;-78
2022/05/29 06:19:06;;;;;;;6.90;2.17;;;;;;;9.75;100.00;98842.41;5113826;28;20199;-79
2022/05/29 06:21:36;;;;;;;5.23;1.97;;;;;;;9.71;100.00;98848.84;5112252;28;20634;-78
2022/05/29 06:24:05;;;;;;;5.37;2.20;;;;;;;9.73;100.00;98841.63;5113407;28;20194;-79
2022/05/29 06:26:34;;;;;;;7.97;2.27;;;;;;;9.80;100.00;98838.59;5109372;28;20199;-79
2022/05/29 06:29:02;;;;;;;10.37;2.17;;;;;;;9.65;100.00;98840.44;5113582;28;20238;-79
2022/05/29 06:31:30;;;;;;;7.27;2.33;;;;;;;9.76;100.00;98845.91;5112759;28;20230;-78
2022/05/29 06:33:58;;;;;;;5.80;2.23;;;;;;;9.85;100.00;98841.81;5108756;28;20214;-78
2022/05/29 06:36:28;;;;;;;5.43;2.30;;;;;;;10.04;100.00;98835.19;5112701;28;20274;-79
2022/05/29 06:39:00;;;;;;;7.30;2.80;;;;;;;10.14;100.00;98830.13;5114394;28;20205;-77
2022/05/29 06:41:34;;;;;;;5.87;2.60;;;;;;;10.37;100.00;98825.94;5105704;28;20214;-77
2022/05/29 06:44:04;;;;;;;8.03;2.50;;;;;;;10.12;100.00;98821.41;5087531;28;20187;-78
2022/05/29 06:46:32;;;;;;;7.80;1.80;;;;;;;10.37;100.00;98828.59;5060949;28;20195;-79
2022/05/29 06:49:01;;;;;;;9.17;2.00;;;;;;;10.26;100.00;98824.03;5110951;28;20199;-78
2022/05/29 06:51:29;;;;;;;8.17;2.13;;;;;;;10.41;100.00;98823.91;5114853;27;20226;-79
2022/05/29 06:54:00;;;;;;;5.63;1.77;;;;;;;10.43;100.00;98824.69;5113719;28;20641;-78
2022/05/29 06:56:29;;;;;;;9.43;2.30;;;;;;;10.47;100.00;98818.22;5113527;28;20213;-79
2022/05/29 06:58:57;;;;;;;6.77;1.67;;;;;;;10.51;100.00;98819.69;5109771;28;20198;-79
2022/05/29 07:07:00;;;;;;;5.53;1.83;;;;;;;11.00;100.00;98813.59;5113590;28;20270;-78
2022/05/29 07:09:32;;;;;;;6.23;1.90;;;;;;;11.15;100.00;98815.16;5106001;28;20198;-79
2022/05/29 07:12:08;;;;;;;4.77;2.03;;;;;;;11.37;100.00;98809.97;5113376;28;20434;-78
2022/05/29 07:14:38;;;;;;;8.70;1.90;;;;;;;11.17;100.00;98815.88;5108726;28;20199;-78
2022/05/29 07:17:07;;;;;;;7.93;1.83;;;;;;;11.28;100.00;98804.50;5106200;28;20200;-78
2022/05/29 07:19:35;;;;;;;5.33;1.93;;;;;;;11.45;100.00;98809.44;5113346;28;20194;-78
2022/05/29 07:22:05;;;;;;;4.13;1.67;;;;;;;11.61;100.00;98807.34;5110234;28;20191;-79
2022/05/29 07:24:40;;;;;;;6.57;1.93;;;;;;;11.68;100.00;98810.41;5109413;28;20214;-78
2022/05/29 07:27:09;;;;;;;3.57;1.53;;;;;;;11.67;100.00;98806.03;5117644;28;20186;-79
2022/05/29 07:29:37;;;;;;;8.07;2.47;;;;;;;11.88;100.00;98804.50;5112271;28;20223;-79
2022/05/29 07:32:08;;;;;;;7.60;1.70;;;;;;;11.90;100.00;98799.06;5113746;28;20211;-78
2022/05/29 07:34:36;;;;;;;3.33;1.70;;;;;;;12.03;100.00;98799.81;5115965;28;20194;-79
2022/05/29 07:37:06;;;;;;;10.93;3.23;;;;;;;12.07;100.00;98793.31;5120680;27;20241;-78
2022/05/29 07:39:38;;;;;;;5.63;1.97;;;;;;;12.20;100.00;98798.53;5115127;28;20296;-79
2022/05/29 07:44:53;;;;;;;5.57;2.00;;;;;;;11.91;100.00;98793.63;5117281;28;20195;-78
2022/05/29 07:47:22;;;;;;;5.30;1.83;;;;;;;12.01;100.00;98793.78;5111293;28;20262;-79
2022/05/29 07:49:51;;;;;;;6.07;1.80;;;;;;;12.46;100.00;98799.19;5117490;28;20199;-79
2022/05/29 07:52:21;;;;;;;6.60;2.13;;;;;;;12.46;100.00;98797.38;5109079;28;20227;-78
2022/05/29 07:54:52;;;;;;;3.97;1.53;;;;;;;12.66;100.00;98800.31;5121220;27;20370;-79
2022/05/29 07:57:20;;;;;;;2.50;1.43;;;;;;;12.91;100.00;98786.75;5115152;28;20195;-79
2022/05/29 07:59:49;;;;;;;2.97;1.40;;;;;;;13.02;100.00;98793.88;5110365;28;20209;-79
2022/05/29 08:02:18;;;;;;;6.23;1.60;;;;;;;12.96;100.00;98789.91;5115664;28;20201;-78
2022/05/29 08:04:47;;;;;;;4.50;1.90;;;;;;;12.71;100.00;98793.66;5110136;28;20285;-79
2022/05/29 08:07:17;;;;;;;4.10;1.70;;;;;;;12.99;100.00;98787.00;5114519;28;20274;-79
2022/05/29 08:09:45;;;;;;;6.27;1.60;;;;;;;12.95;100.00;98790.03;5117787;27;20203;-79
2022/05/29 08:12:15;;;;;;;4.70;1.50;;;;;;;13.14;100.00;98795.56;5115993;28;20222;-79
2022/05/29 08:14:44;;;;;;;6.37;1.63;;;;;;;13.19;100.00;98796.06;5111139;28;20287;-78
2022/05/29 08:17:12;;;;;;;3.17;1.63;;;;;;;13.04;100.00;98790.16;5114139;28;20194;-79
2022/05/29 08:19:40;;;;;;;4.30;1.60;;;;;;;13.28;100.00;98795.31;5115592;28;20214;-79
2022/05/29 08:22:09;;;;;;;4.50;1.70;;;;;;;13.27;100.00;98795.44;5108175;28;20198;-79
2022/05/29 08:33:05;;;;;;;3.80;1.30;;;;;;;14.12;100.00;98779.53;5114489;28;20282;-79
2022/05/29 08:35:35;;;;;;;3.87;1.60;;;;;;;13.96;100.00;98780.81;5109589;28;20255;-79
2022/05/29 08:38:06;;;;;;;2.27;1.30;;;;;;;13.85;100.00;98782.69;5065435;28;20199;-79
2022/05/29 08:40:41;;;;;;;4.23;1.40;;;;;;;13.82;100.00;98783.78;5074693;28;20200;-79
2022/05/29 08:43:18;;;;;;;6.10;1.40;;;;;;;13.72;100.00;98777.53;5089464;28;20266;-79
2022/05/29 08:45:50;;;;;;;2.83;1.10;;;;;;;13.93;100.00;98778.41;5085256;28;20188;-79
2022/05/29 08:48:21;;;;;;;4.63;1.40;;;;;;;13.98;98.31;98778.00;5089408;28;20211;-79
2022/05/29 08:50:58;;;;;;;4.90;1.40;;;;;;;14.43;91.03;98780.41;5088382;28;20213;-79
2022/05/29 08:53:35;;;;;;;2.27;0.87;;;;;;;14.91;83.41;98779.81;5088271;28;20302;-79
2022/05/29 08:56:14;;;;;;;1.83;1.20;;;;;;;15.36;85.47;98770.41;5102036;28;20194;-80
2022/05/29 08:59:01;;;;;;;3.73;1.37;;;;;;;15.71;80.22;98769.88;5112378;28;20187;-79
2022/05/29 09:01:38;;;;;;;4.07;1.40;;;;;;;15.45;89.17;98763.41;5110530;28;20191;-79
2022/05/29 09:04:14;;;;;;;5.47;1.37;;;;;;;15.42;95.82;98766.31;5116627;27;20228;-79
2022/05/29 09:06:48;;;;;;;5.57;1.43;;;;;;;15.44;97.55;98757.22;5111221;28;20197;-79
2022/05/29 09:09:24;;;;;;;7.43;1.40;;;;;;;15.46;93.08;98765.91;5111327;28;20235;-79
2022/05/29 09:11:56;;;;;;;5.40;1.37;;;;;;;15.36;98.75;98762.41;5108726;28;20191;-79
2022/05/29 09:14:39;;;;;;;4.13;1.30;;;;;;;15.22;100.00;98754.78;5114693;28;20226;-79
2022/05/29 09:17:14;;;;;;;3.80;1.37;;;;;;;15.07;99.36;98766.81;5111590;28;20206;-79
2022/05/29 09:19:48;;;;;;;2.57;1.23;;;;;;;15.29;98.40;98761.25;5110575;28;20203;-79
2022/05/29 09:22:22;;;;;;;3.60;1.60;;;;;;;15.29;93.64;98761.25;5114440;28;20190;-79
2022/05/29 09:25:00;;;;;;;4.47;1.50;;;;;;;15.06;88.64;98760.66;5109203;28;20187;-79
2022/05/29 09:27:30;;;;;;;3.80;1.20;;;;;;;14.84;83.04;98767.00;5112673;28;20191;-79
2022/05/29 09:29:59;;;;;;;4.30;1.13;;;;;;;14.83;84.67;98759.16;5116154;27;20222;-79
2022/05/29 09:32:32;;;;;;;3.07;1.20;;;;;;;14.86;77.04;98751.75;5113348;28;20183;-79
2022/05/29 09:35:08;;;;;;;1.70;0.90;;;;;;;15.17;78.01;98749.03;5111292;28;20191;-79
2022/05/29 09:37:49;;;;;;;7.93;1.60;;;;;;;15.27;81.65;98749.88;5078175;28;20198;-78
2022/05/29 09:40:21;;;;;;;2.43;1.20;;;;;;;15.69;82.01;98741.66;5107020;28;20195;-79
2022/05/29 09:42:53;;;;;;;3.27;1.30;;;;;;;16.23;79.34;98742.88;5096545;28;20227;-80
2022/05/29 09:45:32;;;;;;;3.07;1.23;;;;;;;16.50;73.86;98740.25;5114129;28;20195;-79
2022/05/29 09:50:56;;;;;;;3.17;1.40;;;;;;;16.54;78.11;98736.28;5114144;28;20191;-79
2022/05/29 09:53:28;;;;;;;3.80;1.37;;;;;;;16.44;75.08;98740.00;5114169;28;20219;-78
2022/05/29 09:56:00;;;;;;;2.23;1.20;;;;;;;16.92;71.54;98728.28;5113963;28;20194;-78
2022/05/29 09:58:34;;;;;;;2.30;1.00;;;;;;;17.21;69.28;98731.63;5110574;28;20187;-78
2022/05/29 10:01:06;;;;;;;3.00;1.10;;;;;;;17.40;73.22;98725.31;5109763;28;20191;-78
2022/05/29 10:03:51;;;;;;;2.60;1.20;;;;;;;16.86;73.65;98733.22;5111488;28;20194;-78
2022/05/29 10:06:27;;;;;;;3.07;1.10;;;;;;;16.65;72.80;98723.72;5109281;28;20199;-78
2022/05/29 10:09:10;;;;;;;3.20;1.20;;;;;;;16.37;76.75;98725.50;5107906;28;20202;-79
2022/05/29 10:11:40;;;;;;;2.50;1.20;;;;;;;16.09;75.92;98717.44;5115321;28;20221;-79
2022/05/29 10:14:22;;;;;;;3.10;1.00;;;;;;;15.71;77.98;98723.66;5116495;27;20230;-78
2022/05/29 10:16:54;;;;;;;3.83;1.13;;;;;;;16.25;72.60;98714.16;5113306;28;20313;-79
2022/05/29 10:19:35;;;;;;;4.50;1.23;;;;;;;16.96;72.50;98705.56;5114442;28;20206;-79
2022/05/29 10:22:11;;;;;;;2.90;1.00;;;;;;;17.15;62.40;98711.66;5114499;28;20578;-79
2022/05/29 10:24:40;;;;;;;2.53;0.90;;;;;;;17.26;59.64;98702.56;5108908;28;20213;-79
2022/05/29 10:27:15;;;;;;;3.20;1.20;;;;;;;18.17;54.90;98694.31;5114073;28;20202;-79
2022/05/29 10:29:43;;;;;;;1.73;1.10;;;;;;;18.56;50.35;98700.09;5114310;28;20301;-79
2022/05/29 10:32:23;;;;;;;1.97;1.03;;;;;;;17.80;51.05;98690.03;5112480;28;20209;-79
2022/05/29 10:34:53;;;;;;;2.07;1.10;;;;;;;17.95;52.53;98683.13;5110947;28;20250;-79
2022/05/29 10:37:30;;;;;;;2.50;0.80;;;;;;;18.69;51.90;98683.56;5107973;28;20198;-79
2022/05/29 10:40:14;;;;;;;4.10;1.23;;;;;;;16.14;59.21;98680.44;5113954;28;20206;-79
2022/05/29 10:42:44;;;;;;;2.37;1.03;;;;;;;15.88;65.73;98682.03;5106404;28;20291;-79
2022/05/29 10:45:22;;;;;;;2.20;1.00;;;;;;;15.05;70.76;98672.75;5110538;28;20201;-78
2022/05/29 10:48:34;;;;;;;3.83;0.90;;;;;;;15.46;72.49;98683.19;5112733;28;20209;-78
2022/05/29 10:51:13;;;;;;;2.97;1.20;;;;;;;14.84;76.49;98676.34;5113707;28;20191;-77
2022/05/29 10:54:05;;;;;;;2.80;1.10;;;;;;;15.68;81.03;98679.41;5113985;28;20246;-78
2022/05/29 10:56:49;;;;;;;2.13;1.10;;;;;;;16.04;76.75;98679.63;5114421;27;20213;-78
2022/05/29 10:59:44;;;;;;;1.10;0.80;;;;;;;16.14;70.84;98666.25;5112064;28;20191;-78
2022/05/29 11:05:28;;;;;;;1.63;1.10;;;;;;;18.17;59.81;98665.69;5113539;28;20270;-78
2022/05/29 11:08:12;;;;;;;2.00;1.00;;;;;;;18.22;60.85;98659.81;5110733;28;20207;-78
2022/05/29 11:10:55;;;;;;;5.20;1.73;;;;;;;16.95;64.97;98674.47;5109432;28;20195;-78
2022/05/29 11:13:44;;;;;;;2.73;1.70;;;;;;;16.98;62.10;98661.63;5113374;28;20195;-78
2022/05/29 11:16:22;;;;;;;3.23;1.10;;;;;;;18.13;61.00;98655.41;5109320;28;20274;-78
2022/05/29 11:19:03;;;;;;;3.73;1.40;;;;;;;18.20;57.78;98651.09;5113355;28;20303;-78
2022/05/29 11:21:50;;;;;;;3.50;1.37;;;;;;;17.85;58.40;98652.06;5111693;28;20187;-78
2022/05/29 11:24:40;;;;;;;4.03;1.20;;;;;;;18.27;58.39;98644.13;5111589;28;20202;-78
2022/05/29 11:27:24;;;;;;;3.23;1.17;;;;;;;18.77;56.24;98638.81;5113275;28;20256;-78
2022/05/29 11:30:05;;;;;;;3.43;1.40;;;;;;;19.65;51.35;98636.47;5113149;28;20223;-78
2022/05/29 11:33:00;;;;;;;1.70;0.90;;;;;;;18.68;53.23;98637.13;5109521;28;20199;-78
2022/05/29 11:35:42;;;;;;;2.13;1.30;;;;;;;18.13;62.36;98625.94;5113265;28;20219;-78
2022/05/29 11:38:30;;;;;;;2.37;1.30;;;;;;;17.74;61.30;98632.56;5113441;28;20285;-78
2022/05/29 11:41:05;;;;;;;2.30;1.10;;;;;;;17.03;64.47;98643.28;5113188;28;20199;-78
2022/05/29 11:43:42;;;;;;;3.30;1.20;;;;;;;17.12;65.89;98630.84;5112988;28;20202;-78
2022/05/29 11:52:04;;;;;;;2.37;1.23;;;;;;;17.50;64.40;98628.84;5111227;28;20248;-78
2022/05/29 11:54:39;;;;;;;3.63;1.10;;;;;;;17.80;61.44;98631.09;5111412;28;20218;-78
2022/05/29 11:57:12;;;;;;;2.63;1.10;;;;;;;18.54;59.36;98614.41;5112964;28;20199;-78
2022/05/29 11:59:50;;;;;;;2.80;1.33;;;;;;;18.83;58.21;98615.88;5114983;28;20406;-78
2022/05/29 12:02:31;;;;;;;2.83;1.20;;;;;;;19.16;58.17;98614.91;5106083;28;20195;-78
2022/05/29 12:05:09;;;;;;;1.93;0.90;;;;;;;17.32;61.54;98620.81;5114660;28;20198;-78
2022/05/29 12:07:43;;;;;;;2.13;1.20;;;;;;;17.69;58.37;98621.47;5112810;28;20608;-78
2022/05/29 12:10:20;;;;;;;3.17;1.30;;;;;;;18.73;53.96;98601.75;5107979;28;20199;-78
2022/05/29 12:12:57;;;;;;;1.80;1.03;;;;;;;19.02;51.55;98604.00;5116811;28;20191;-78
2022/05/29 12:15:25;;;;;;;1.77;1.07;;;;;;;17.95;52.89;98599.19;5116559;28;20675;-78
2022/05/29 12:18:04;;;;;;;2.63;1.10;;;;;;;18.65;49.57;98601.72;5113876;28;20199;-78
2022/05/29 12:20:41;;;;;;;1.93;1.10;;;;;;;18.62;48.93;98597.47;5116579;28;20208;-78
2022/05/29 12:23:19;;;;;;;2.47;1.00;;;;;;;19.12;45.99;98589.41;5109815;28;20199;-78
2022/05/29 12:25:57;;;;;;;1.10;0.97;;;;;;;19.82;45.81;98588.06;5116647;28;20209;-78
2022/05/29 12:28:36;;;;;;;1.73;1.03;;;;;;;20.56;46.09;98584.16;5116659;28;20579;-78
2022/05/29 12:31:08;;;;;;;2.67;1.10;;;;;;;21.18;41.82;98580.56;5111532;28;20199;-79
2022/05/29 12:33:36;;;;;;;2.13;1.30;;;;;;;20.12;43.43;98584.63;5115553;28;20198;-79
2022/05/29 12:36:19;;;;;;;2.90;1.40;;;;;;;20.70;46.11;98582.56;5113268;28;20226;-79